Time;durP1;ratioP1;P1;durP2;ratioP2;P2;SDS_P1;SDS_P2;PMS_P1;PMS_P2;Temp;Humidity;BMP_temperature;BMP_pressure;BME280_temperature;BME280_humidity;BME280_pressure;Samples;Min_cycle;Max_cycle;Signal;HPM_P1;HPM_P2
2022/09/09 00:00:26;;;;;;;6.30;4.58;;;;;;;24.78;47.37;100775.02;1752185;81;21063;-77
2022/09/09 00:03:12;;;;;;;5.87;4.60;;;;;;;24.77;47.38;100782.55;1748371;80;21149;-77
2022/09/09 00:06:08;;;;;;;7.78;4.50;;;;;;;24.79;47.37;100781.61;1749993;81;21047;-77
2022/09/09 00:08:48;;;;;;;5.05;4.35;;;;;;;24.78;47.37;100784.15;1758957;81;21006;-76
2022/09/09 00:11:18;;;;;;;5.15;4.45;;;;;;;24.78;47.35;100783.37;1727975;81;21048;-77
2022/09/09 00:13:48;;;;;;;6.00;4.60;;;;;;;24.79;47.34;100778.02;1750562;81;21090;-77
2022/09/09 00:16:23;;;;;;;6.83;4.35;;;;;;;24.79;47.34;100773.84;1746927;80;21723;-77
2022/09/09 00:19:13;;;;;;;6.60;4.83;;;;;;;24.78;47.35;100777.20;1747267;81;21144;-77
2022/09/09 00:21:57;;;;;;;6.33;4.37;;;;;;;24.78;47.37;100779.98;1752376;80;21100;-76
2022/09/09 00:24:44;;;;;;;5.28;4.08;;;;;;;24.78;47.35;100779.19;1755083;80;21064;-76
2022/09/09 00:27:34;;;;;;;5.75;4.33;;;;;;;24.78;47.34;100777.80;1746586;82;21519;-76
2022/09/09 00:30:23;;;;;;;5.78;4.65;;;;;;;24.78;47.34;100779.19;1751383;80;21349;-76
2022/09/09 00:32:59;;;;;;;5.40;4.25;;;;;;;24.77;47.35;100779.77;1775781;79;21079;-79
2022/09/09 00:35:42;;;;;;;6.22;4.47;;;;;;;24.78;47.34;100775.02;1774607;80;21560;-76
2022/09/09 00:38:34;;;;;;;6.55;4.62;;;;;;;24.78;47.34;100780.58;1745952;81;21064;-75
2022/09/09 00:41:34;;;;;;;5.05;4.35;;;;;;;24.77;47.37;100778.38;1791103;79;21485;-76
2022/09/09 00:44:05;;;;;;;6.25;4.35;;;;;;;24.77;47.35;100776.17;1735127;80;21837;-76
2022/09/09 00:46:43;;;;;;;5.60;3.95;;;;;;;24.76;47.35;100773.15;1770193;80;21124;-76
2022/09/09 00:49:27;;;;;;;6.28;4.42;;;;;;;24.77;47.37;100780.34;1768820;79;21533;-76
2022/09/09 00:52:19;;;;;;;6.45;4.28;;;;;;;24.76;47.35;100789.27;1719147;81;21101;-76
2022/09/09 00:54:54;;;;;;;5.40;4.00;;;;;;;24.76;47.40;100781.49;1767744;81;21040;-77
2022/09/09 00:57:31;;;;;;;5.17;4.33;;;;;;;24.76;47.38;100776.74;1758495;80;21520;-76
2022/09/09 01:00:23;;;;;;;5.97;4.03;;;;;;;24.75;47.40;100777.90;1731931;81;21513;-77
2022/09/09 01:03:02;;;;;;;4.80;4.28;;;;;;;24.77;47.38;100780.34;1768488;80;21017;-76
2022/09/09 01:06:18;;;;;;;4.75;3.83;;;;;;;24.76;47.39;100785.09;1785159;79;21063;-76
2022/09/09 01:09:28;;;;;;;5.22;4.42;;;;;;;24.76;47.38;100777.32;1750336;81;21085;-77
2022/09/09 01:12:06;;;;;;;6.15;4.30;;;;;;;24.76;47.36;100778.71;1765606;80;21860;-76
2022/09/09 01:14:42;;;;;;;5.67;4.10;;;;;;;24.74;47.35;100770.70;1764939;81;21450;-77
2022/09/09 01:17:20;;;;;;;5.92;4.00;;;;;;;24.74;47.37;100772.70;1764547;80;21540;-76
2022/09/09 01:20:04;;;;;;;5.03;4.00;;;;;;;24.74;47.39;100773.48;1765007;81;21083;-76
2022/09/09 01:22:54;;;;;;;6.42;3.85;;;;;;;24.74;47.40;100774.09;1734995;82;21043;-77
2022/09/09 01:26:07;;;;;;;5.47;4.43;;;;;;;24.74;47.41;100772.09;1754922;81;21193;-76
2022/09/09 01:28:35;;;;;;;4.80;4.30;;;;;;;24.73;47.42;100770.49;1742850;81;21088;-77
2022/09/09 01:31:01;;;;;;;5.65;4.50;;;;;;;24.73;47.41;100769.10;1726521;81;20998;-76
2022/09/09 01:33:28;;;;;;;5.65;4.62;;;;;;;24.72;47.41;100767.47;1756315;81;20922;-77
2022/09/09 01:36:00;;;;;;;5.15;4.10;;;;;;;24.73;47.43;100766.32;1777461;79;21011;-76
2022/09/09 01:38:27;;;;;;;4.67;4.08;;;;;;;24.74;47.44;100761.57;1756450;80;21515;-76
2022/09/09 01:40:54;;;;;;;6.95;4.40;;;;;;;24.74;47.44;100764.35;1753175;80;20996;-76
2022/09/09 01:43:21;;;;;;;5.47;4.00;;;;;;;24.75;47.46;100763.98;1784136;78;21055;-76
2022/09/09 01:45:49;;;;;;;5.45;3.95;;;;;;;24.75;47.46;100764.56;1744696;81;21004;-76
2022/09/09 01:48:15;;;;;;;5.12;3.98;;;;;;;24.75;47.47;100770.13;1765254;81;21020;-76
2022/09/09 01:50:42;;;;;;;6.45;3.80;;;;;;;24.74;47.47;100766.53;1735268;81;21600;-77
2022/09/09 01:53:09;;;;;;;5.40;4.17;;;;;;;24.74;47.46;100766.53;1766632;81;21064;-76
2022/09/09 01:55:41;;;;;;;5.85;4.25;;;;;;;24.76;47.47;100766.19;1735002;81;21033;-76
2022/09/09 01:58:41;;;;;;;5.33;3.85;;;;;;;24.75;47.45;100759.81;1747073;81;21050;-77
2022/09/09 02:01:23;;;;;;;;;;;;;;;24.76;47.43;100756.45;1789792;79;21031;-77
2022/09/09 02:03:53;;;;;;;4.60;4.05;;;;;;;24.75;47.42;100761.78;1790081;79;21153;-77
2022/09/09 02:06:37;;;;;;;4.92;3.85;;;;;;;24.73;47.42;100761.33;1781501;80;21026;-77
2022/09/09 02:09:05;;;;;;;5.37;4.30;;;;;;;24.73;47.44;100764.11;1762525;80;21572;-77
2022/09/09 02:11:32;;;;;;;5.58;4.10;;;;;;;24.73;47.42;100758.55;1762468;80;20992;-77
2022/09/09 02:14:02;;;;;;;6.45;3.80;;;;;;;24.73;47.44;100754.38;1761042;80;21009;-77
2022/09/09 02:16:51;;;;;;;5.10;4.07;;;;;;;24.74;47.44;100761.57;1762671;81;22219;-77
2022/09/09 02:19:28;;;;;;;4.17;3.40;;;;;;;24.71;47.45;100756.67;1762458;81;21136;-77
2022/09/09 02:21:55;;;;;;;4.65;3.95;;;;;;;24.73;47.42;100759.94;1762533;80;21569;-77
2022/09/09 02:24:22;;;;;;;4.62;4.05;;;;;;;24.74;47.46;100758.79;1762187;80;21124;-77
2022/09/09 02:26:52;;;;;;;5.85;3.85;;;;;;;24.74;47.46;100766.53;1763933;80;21032;-77
2022/09/09 02:29:22;;;;;;;5.80;3.72;;;;;;;24.74;47.47;100769.91;1762982;81;21057;-77
2022/09/09 02:31:49;;;;;;;4.45;4.05;;;;;;;24.74;47.47;100769.91;1760772;81;21075;-77
2022/09/09 02:34:15;;;;;;;5.37;3.90;;;;;;;24.74;47.46;100774.09;1762261;80;20937;-77
2022/09/09 02:36:43;;;;;;;5.55;4.12;;;;;;;24.74;47.47;100775.48;1762369;81;21519;-77
2022/09/09 02:39:09;;;;;;;5.50;4.05;;;;;;;24.74;47.47;100776.88;1730459;81;21217;-77
2022/09/09 02:41:39;;;;;;;5.33;3.87;;;;;;;24.74;47.47;100781.83;1730060;81;21866;-77
2022/09/09 02:44:16;;;;;;;5.73;4.00;;;;;;;24.75;47.48;100783.46;1762663;81;21056;-77
2022/09/09 02:47:34;;;;;;;5.20;3.45;;;;;;;24.74;47.47;100767.13;1762074;80;21071;-77
2022/09/09 02:50:20;;;;;;;4.87;3.72;;;;;;;24.74;47.43;100760.18;1762360;81;21600;-77
2022/09/09 02:53:20;;;;;;;9.03;4.17;;;;;;;24.74;47.40;100764.35;1732040;81;21039;-77
2022/09/09 02:56:06;;;;;;;6.33;4.10;;;;;;;24.74;47.42;100760.18;1762646;81;21125;-77
2022/09/09 02:58:33;;;;;;;5.35;3.92;;;;;;;24.72;47.44;100761.09;1761765;81;20988;-77
2022/09/09 03:01:00;;;;;;;4.25;3.72;;;;;;;24.71;47.43;100763.05;1761797;81;21071;-77
2022/09/09 03:03:27;;;;;;;4.85;4.08;;;;;;;24.72;47.45;100761.09;1726320;81;21144;-77
2022/09/09 03:05:53;;;;;;;3.67;3.37;;;;;;;24.72;47.47;100760.52;1752330;80;21005;-76
2022/09/09 03:08:20;;;;;;;5.17;3.72;;;;;;;24.73;47.45;100759.94;1752725;81;21127;-77
2022/09/09 03:10:47;;;;;;;4.50;3.77;;;;;;;24.72;47.47;100752.17;1752775;80;21083;-77
2022/09/09 03:13:14;;;;;;;3.55;3.22;;;;;;;24.72;47.48;100759.13;1752202;81;21068;-78
2022/09/09 03:15:41;;;;;;;5.80;4.00;;;;;;;24.73;47.48;100761.33;1752805;80;21522;-77
2022/09/09 03:18:08;;;;;;;5.15;3.80;;;;;;;24.74;47.48;100765.14;1752810;80;21080;-77
2022/09/09 03:20:34;;;;;;;4.30;3.75;;;;;;;24.73;47.49;100762.72;1752500;81;21153;-78
2022/09/09 03:23:00;;;;;;;3.42;3.12;;;;;;;24.73;47.49;100761.33;1752505;80;21539;-78
2022/09/09 03:25:28;;;;;;;7.05;3.85;;;;;;;24.73;47.49;100765.50;1752848;81;21418;-77
2022/09/09 03:27:56;;;;;;;4.42;3.85;;;;;;;24.73;47.48;100760.75;1752414;81;21024;-78
2022/09/09 03:30:25;;;;;;;4.58;3.62;;;;;;;24.74;47.48;100768.52;1752636;81;21095;-78
2022/09/09 03:32:52;;;;;;;4.97;3.83;;;;;;;24.74;47.47;100767.13;1751852;80;21241;-77
2022/09/09 03:35:18;;;;;;;5.22;3.77;;;;;;;24.73;47.47;100768.28;1752260;81;21054;-77
2022/09/09 03:37:44;;;;;;;5.97;3.72;;;;;;;24.74;47.47;100772.09;1751058;80;21085;-77
2022/09/09 03:40:11;;;;;;;5.22;3.95;;;;;;;24.74;47.46;100762.96;1732771;81;21051;-78
2022/09/09 03:42:38;;;;;;;4.85;3.77;;;;;;;24.74;47.46;100762.96;1752614;81;21072;-77
2022/09/09 03:45:07;;;;;;;4.50;3.90;;;;;;;24.74;47.48;100762.35;1748017;81;21305;-77
2022/09/09 03:47:33;;;;;;;4.10;3.58;;;;;;;24.75;47.46;100764.56;1752494;80;21021;-77
2022/09/09 03:50:08;;;;;;;4.40;3.70;;;;;;;24.74;47.46;100764.35;1751521;81;21462;-76
2022/09/09 03:52:36;;;;;;;5.47;3.30;;;;;;;24.73;47.45;100764.11;1747353;81;20962;-77
2022/09/09 03:55:03;;;;;;;4.97;3.62;;;;;;;24.73;47.43;100771.06;1752758;81;21522;-77
2022/09/09 03:57:30;;;;;;;5.50;3.80;;;;;;;24.71;47.44;100776.16;1752628;81;21369;-79
2022/09/09 03:59:56;;;;;;;4.17;3.37;;;;;;;24.71;47.46;100783.92;1752756;80;21099;-77
2022/09/09 04:02:22;;;;;;;7.50;4.28;;;;;;;24.71;47.46;100781.72;1721365;81;21040;-78
2022/09/09 04:04:49;;;;;;;7.12;3.67;;;;;;;24.72;47.48;100783.34;1758677;80;21287;-80
2022/09/09 04:07:15;;;;;;;4.92;3.52;;;;;;;24.70;47.46;100785.64;1760607;80;21120;-77
2022/09/09 04:09:42;;;;;;;6.17;3.37;;;;;;;24.66;47.51;100775.80;1760487;80;21020;-77
2022/09/09 04:12:08;;;;;;;9.40;3.95;;;;;;;24.64;47.50;100775.34;1757396;80;21008;-77
2022/09/09 04:14:35;;;;;;;6.42;3.45;;;;;;;24.61;47.48;100771.88;1730739;81;21557;-77
2022/09/09 04:17:05;;;;;;;5.30;4.08;;;;;;;24.56;47.51;100770.13;1747512;81;21000;-77
2022/09/09 04:19:30;;;;;;;6.92;4.20;;;;;;;24.52;47.54;100762.23;1751886;81;21008;-77
2022/09/09 04:21:57;;;;;;;6.50;3.75;;;;;;;24.49;47.54;100759.31;1764333;80;21323;-78
2022/09/09 04:24:24;;;;;;;6.70;3.50;;;;;;;24.46;47.56;100758.05;1760840;81;21037;-77
2022/09/09 04:26:50;;;;;;;6.35;3.72;;;;;;;24.44;47.55;100757.56;1758492;81;21063;-77
2022/09/09 04:29:17;;;;;;;8.00;3.30;;;;;;;24.43;47.53;100750.97;1757179;80;21348;-78
2022/09/09 04:31:44;;;;;;;6.75;3.65;;;;;;;24.39;47.55;100752.82;1748508;80;21020;-79
2022/09/09 04:34:12;;;;;;;6.30;3.55;;;;;;;24.38;47.55;100750.62;1725883;81;21172;-76
2022/09/09 04:36:40;;;;;;;7.97;4.10;;;;;;;24.37;47.55;100750.38;1752057;80;21121;-77
2022/09/09 04:39:07;;;;;;;8.78;3.45;;;;;;;24.34;47.55;100750.26;1767591;80;21106;-80
2022/09/09 04:41:33;;;;;;;6.80;3.45;;;;;;;24.33;47.55;100755.58;1757999;80;21011;-80
2022/09/09 04:44:00;;;;;;;9.73;3.52;;;;;;;24.31;47.59;100766.25;1740262;81;21095;-77
2022/09/09 04:46:27;;;;;;;10.60;3.72;;;;;;;24.27;47.69;100763.34;1697862;82;22072;-77
2022/09/09 04:48:55;;;;;;;9.55;3.75;;;;;;;24.27;47.77;100763.34;1752741;80;21452;-77
2022/09/09 04:51:28;;;;;;;9.48;4.37;;;;;;;24.25;47.90;100763.44;1750342;80;21958;-76
2022/09/09 04:53:54;;;;;;;13.08;4.17;;;;;;;24.23;47.97;100770.72;1747483;80;21055;-81
2022/09/09 04:56:20;;;;;;;11.00;4.65;;;;;;;24.20;48.05;100765.85;1744101;80;21038;-76
2022/09/09 04:58:47;;;;;;;11.28;4.05;;;;;;;24.19;48.17;100770.39;1757769;79;21118;-77
2022/09/09 05:01:20;;;;;;;13.62;4.75;;;;;;;24.18;48.26;100770.95;1728230;81;21050;-80
2022/09/09 05:03:47;;;;;;;10.05;4.33;;;;;;;24.18;48.30;100776.52;1759692;78;21059;-75
2022/09/09 05:06:16;;;;;;;7.37;3.98;;;;;;;24.19;48.40;100774.55;1779527;79;21100;-80
2022/09/09 05:08:43;;;;;;;12.18;4.00;;;;;;;24.18;48.41;100784.86;1780549;79;21126;-81
2022/09/09 05:11:27;;;;;;;10.38;4.25;;;;;;;24.16;48.48;100780.20;1775090;79;21478;-79
2022/09/09 05:13:50;;;;;;;8.28;3.90;;;;;;;24.15;48.52;100771.63;1778119;79;21573;-80
2022/09/09 05:16:17;;;;;;;9.38;3.95;;;;;;;24.13;48.52;100771.14;1782799;79;21097;-77
2022/09/09 05:18:44;;;;;;;7.58;3.72;;;;;;;24.12;48.56;100770.89;1750968;79;21015;-77
2022/09/09 05:21:11;;;;;;;7.83;3.92;;;;;;;24.12;48.58;100771.70;1767457;79;21081;-77
2022/09/09 05:23:37;;;;;;;9.33;3.85;;;;;;;24.10;48.56;100766.27;1768701;79;21370;-77
2022/09/09 05:26:04;;;;;;;10.18;4.33;;;;;;;24.11;48.60;100770.66;1779573;79;21489;-80
2022/09/09 05:28:31;;;;;;;7.40;3.65;;;;;;;24.10;48.62;100769.83;1771125;79;21173;-79
2022/09/09 05:31:00;;;;;;;6.90;3.72;;;;;;;24.12;48.61;100774.49;1777296;79;21511;-76
2022/09/09 05:33:27;;;;;;;9.55;4.30;;;;;;;24.13;48.59;100773.91;1778338;79;21051;-80
2022/09/09 05:35:59;;;;;;;11.93;3.95;;;;;;;24.13;48.59;100778.91;1784108;79;21244;-78
2022/09/09 05:38:26;;;;;;;11.65;3.95;;;;;;;24.16;48.56;100777.42;1770854;79;21046;-80
2022/09/09 05:40:53;;;;;;;11.28;3.47;;;;;;;24.17;48.54;100771.29;1777016;79;21039;-76
2022/09/09 05:43:21;;;;;;;9.23;3.55;;;;;;;24.17;48.55;100770.72;1742963;79;21054;-76
2022/09/09 05:46:02;;;;;;;10.60;4.22;;;;;;;24.18;48.55;100766.79;1767577;79;21523;-78
2022/09/09 05:48:30;;;;;;;9.78;3.80;;;;;;;24.19;48.55;100762.05;1767118;79;21498;-79
2022/09/09 05:50:57;;;;;;;7.90;3.85;;;;;;;24.18;48.63;100757.06;1768779;79;21572;-77
2022/09/09 05:53:23;;;;;;;16.12;3.60;;;;;;;24.17;48.62;100751.83;1738730;79;21059;-81
2022/09/09 05:55:50;;;;;;;10.70;3.50;;;;;;;24.18;48.79;100750.11;1766471;79;21038;-78
2022/09/09 05:58:17;;;;;;;13.78;3.80;;;;;;;24.21;48.91;100743.86;1771788;79;21014;-82
2022/09/09 06:00:43;;;;;;;16.12;3.92;;;;;;;24.24;48.93;100749.30;1767762;79;21149;-75
2022/09/09 06:03:12;;;;;;;14.30;3.55;;;;;;;24.25;48.90;100744.79;1764170;79;21550;-77
2022/09/09 06:05:38;;;;;;;17.42;4.42;;;;;;;24.25;48.85;100743.40;1766834;78;21058;-81
2022/09/09 06:08:05;;;;;;;14.80;3.22;;;;;;;24.27;48.85;100731.38;1758143;80;21072;-77
2022/09/09 06:10:31;;;;;;;9.58;3.08;;;;;;;24.28;48.78;100739.92;1744416;80;21032;-82
2022/09/09 06:12:58;;;;;;;10.85;3.33;;;;;;;24.28;48.70;100739.92;1747773;80;21668;-80
2022/09/09 06:15:24;;;;;;;10.80;3.20;;;;;;;24.30;48.58;100734.84;1739571;80;21013;-79
2022/09/09 06:17:57;;;;;;;11.97;3.30;;;;;;;24.31;48.48;100737.05;1750761;79;21103;-78
2022/09/09 06:20:24;;;;;;;6.25;2.92;;;;;;;24.33;48.37;100743.06;1753039;80;21127;-80
2022/09/09 06:22:51;;;;;;;10.43;3.85;;;;;;;24.34;48.29;100744.12;1735579;81;21709;-78
2022/09/09 06:25:18;;;;;;;6.40;2.90;;;;;;;24.35;48.14;100737.41;1762609;80;21117;-79
2022/09/09 06:27:49;;;;;;;7.60;2.50;;;;;;;24.37;48.08;100732.30;1752246;79;21004;-77
2022/09/09 06:30:17;;;;;;;5.30;2.70;;;;;;;24.38;47.96;100727.55;1757225;80;21076;-83
2022/09/09 06:32:43;;;;;;;7.37;3.55;;;;;;;24.38;47.84;100727.55;1755629;81;20996;-76
2022/09/09 06:35:10;;;;;;;13.15;3.35;;;;;;;24.38;47.72;100732.54;1754789;80;21081;-77
2022/09/09 06:37:37;;;;;;;10.63;2.92;;;;;;;24.39;47.60;100743.91;1761267;80;21148;-81
2022/09/09 06:40:10;;;;;;;7.50;3.30;;;;;;;24.39;47.55;100755.03;1749107;80;20989;-83
2022/09/09 06:42:37;;;;;;;4.50;2.70;;;;;;;24.39;47.49;100756.99;1753528;80;21090;-86
2022/09/09 06:45:04;;;;;;;8.05;3.55;;;;;;;24.39;47.44;100748.08;1757302;79;21167;-83
2022/09/09 06:47:31;;;;;;;7.75;2.85;;;;;;;24.40;47.38;100753.84;1752884;80;22076;-77
2022/09/09 06:49:58;;;;;;;12.45;3.20;;;;;;;24.41;47.31;100747.70;1752184;79;21100;-76
2022/09/09 06:52:31;;;;;;;10.95;3.20;;;;;;;24.41;47.37;100760.22;1749962;79;21055;-76
2022/09/09 06:54:58;;;;;;;14.03;3.33;;;;;;;24.40;47.44;100769.14;1759554;79;21067;-78
2022/09/09 06:57:24;;;;;;;9.55;2.80;;;;;;;24.42;47.48;100767.42;1753027;80;21080;-75
2022/09/09 06:59:51;;;;;;;14.90;2.95;;;;;;;24.43;47.49;100761.52;1760356;79;21411;-77
2022/09/09 07:02:18;;;;;;;13.00;3.10;;;;;;;24.45;47.49;100764.75;1740109;80;21115;-75
2022/09/09 07:04:44;;;;;;;16.25;3.55;;;;;;;24.46;47.51;100758.62;1750359;81;21119;-80
2022/09/09 07:07:13;;;;;;;16.10;4.03;;;;;;;24.47;47.59;100755.50;1756166;80;21035;-78
2022/09/09 07:09:39;;;;;;;10.48;3.25;;;;;;;24.49;47.58;100762.09;1749723;79;21073;-77
2022/09/09 07:12:06;;;;;;;11.85;3.27;;;;;;;24.49;47.58;100764.30;1752480;79;21878;-76
2022/09/09 07:14:34;;;;;;;17.40;3.72;;;;;;;24.50;47.54;100763.72;1776149;80;21125;-75
2022/09/09 07:17:00;;;;;;;16.55;3.52;;;;;;;24.50;47.55;100765.11;1757995;79;21382;-76
2022/09/09 07:19:27;;;;;;;11.18;3.37;;;;;;;24.52;47.53;100766.41;1776671;78;21525;-77
2022/09/09 07:21:53;;;;;;;10.00;3.25;;;;;;;24.52;47.56;100757.25;1772553;78;21046;-80
2022/09/09 07:24:20;;;;;;;10.03;3.40;;;;;;;24.53;47.62;100753.29;1751845;79;21008;-76
2022/09/09 07:26:46;;;;;;;11.88;3.22;;;;;;;24.55;47.61;100750.98;1775547;78;21127;-76
2022/09/09 07:29:13;;;;;;;11.48;3.45;;;;;;;24.55;47.72;100740.68;1748825;80;21033;-78
2022/09/09 07:31:40;;;;;;;10.55;3.35;;;;;;;24.55;47.72;100743.46;1745331;80;21081;-75
2022/09/09 07:34:09;;;;;;;9.20;3.30;;;;;;;24.56;47.71;100752.05;1764372;78;21054;-79
2022/09/09 07:36:38;;;;;;;10.98;3.47;;;;;;;24.58;47.73;100762.80;1756265;78;21100;-77
2022/09/09 07:39:17;;;;;;;8.93;3.33;;;;;;;24.58;47.76;100762.23;1773260;78;21592;-77
2022/09/09 07:41:46;;;;;;;10.88;3.40;;;;;;;24.59;47.77;100758.87;1754584;79;21048;-81
2022/09/09 07:44:21;;;;;;;12.82;3.42;;;;;;;24.60;47.73;100759.69;1722638;81;34251;-79
2022/09/09 07:46:47;;;;;;;12.45;3.50;;;;;;;24.61;47.92;100757.15;1768370;79;21082;-79
2022/09/09 07:49:14;;;;;;;14.35;3.87;;;;;;;24.62;48.22;100758.75;1759733;79;21008;-80
2022/09/09 07:51:45;;;;;;;17.27;3.62;;;;;;;24.63;47.97;100758.98;1758585;80;22196;-78
2022/09/09 07:54:15;;;;;;;10.80;3.70;;;;;;;24.62;47.96;100762.34;1780333;78;21517;-80
2022/09/09 07:56:42;;;;;;;13.60;4.17;;;;;;;24.64;48.29;100756.45;1759039;79;21090;-76
2022/09/09 07:59:11;;;;;;;;;;;;;;;24.67;48.43;100753.78;1742094;79;22163;-76
2022/09/09 08:01:41;;;;;;;12.63;3.70;;;;;;;24.69;48.34;100757.62;1761358;79;20227;-76
2022/09/09 08:04:15;;;;;;;14.85;4.08;;;;;;;24.69;48.22;100764.58;1769483;78;21567;-76
2022/09/09 08:06:41;;;;;;;14.18;3.60;;;;;;;24.70;48.22;100760.61;1759973;79;21283;-78
2022/09/09 08:09:07;;;;;;;12.10;3.72;;;;;;;24.70;48.15;100766.98;1733098;80;22082;-80
2022/09/09 08:11:35;;;;;;;13.03;3.55;;;;;;;24.73;48.09;100770.49;1745910;80;21130;-80
2022/09/09 08:14:03;;;;;;;17.23;4.00;;;;;;;24.74;48.15;100770.70;1722381;81;21115;-80
2022/09/09 08:16:31;;;;;;;20.35;3.72;;;;;;;24.76;48.21;100773.96;1754925;80;21159;-79
2022/09/09 08:18:58;;;;;;;15.93;3.98;;;;;;;24.76;48.27;100764.22;1752017;80;21041;-80
2022/09/09 08:21:27;;;;;;;15.65;3.95;;;;;;;24.76;48.33;100764.22;1739222;80;21555;-81
2022/09/09 08:23:55;;;;;;;12.45;4.20;;;;;;;24.79;48.37;100757.14;1757640;79;21697;-82
2022/09/09 08:26:25;;;;;;;14.00;3.95;;;;;;;24.80;48.44;100750.42;1745655;80;21095;-80
2022/09/09 08:28:52;;;;;;;12.53;4.42;;;;;;;24.80;48.57;100750.42;1753994;79;21056;-74
2022/09/09 08:31:30;;;;;;;19.85;4.45;;;;;;;24.81;48.79;100757.62;1742723;81;21044;-76
2022/09/09 08:33:59;;;;;;;13.80;4.37;;;;;;;24.80;48.92;100754.02;1737452;81;21128;-74
2022/09/09 08:36:29;;;;;;;15.53;4.20;;;;;;;24.81;49.05;100747.30;1759476;79;21400;-81
2022/09/09 08:38:57;;;;;;;11.63;4.67;;;;;;;24.82;49.06;100748.94;1723498;81;21718;-82
2022/09/09 08:41:41;;;;;;;13.50;3.95;;;;;;;24.84;49.08;100755.53;1757063;79;21473;-81
2022/09/09 08:44:38;;;;;;;15.23;3.92;;;;;;;24.85;49.33;100748.27;1756306;78;21052;-78
2022/09/09 08:47:34;;;;;;;17.92;7.72;;;;;;;24.87;49.17;100745.92;1755575;79;21184;-81
2022/09/09 08:50:24;;;;;;;28.05;6.25;;;;;;;24.88;49.16;100741.99;1756048;80;21040;-76
2022/09/09 08:53:07;;;;;;;28.00;5.75;;;;;;;24.89;49.35;100741.41;1755221;81;21040;-77
2022/09/09 08:55:51;;;;;;;15.90;5.55;;;;;;;24.94;49.63;100730.88;1772044;79;21098;-76
2022/09/09 08:58:24;;;;;;;21.07;5.47;;;;;;;24.98;49.69;100726.23;1756465;79;21040;-78
2022/09/09 09:01:40;;;;;;;22.40;4.80;;;;;;;25.00;49.70;100723.89;1745542;81;21051;-78
2022/09/09 09:04:36;;;;;;;26.77;4.55;;;;;;;24.99;49.59;100722.27;1742590;80;21131;-77
2022/09/09 09:07:55;;;;;;;17.27;5.28;;;;;;;25.01;49.52;100716.36;1754328;80;21370;-79
2022/09/09 09:10:47;;;;;;;13.15;4.37;;;;;;;25.00;49.56;100714.15;1773201;79;21970;-78
2022/09/09 09:13:20;;;;;;;10.23;4.35;;;;;;;25.01;49.55;100710.79;1771824;77;21058;-78
2022/09/09 09:15:52;;;;;;;15.15;4.42;;;;;;;25.00;49.52;100705.80;1786281;79;21682;-79
2022/09/09 09:18:19;;;;;;;11.55;4.28;;;;;;;24.99;49.42;100704.17;1718985;81;21052;-79
2022/09/09 09:21:06;;;;;;;16.45;5.00;;;;;;;25.00;49.36;100704.98;1783218;79;21569;-79
2022/09/09 09:23:38;;;;;;;12.98;5.40;;;;;;;25.00;49.42;100703.59;1775380;80;23081;-78
2022/09/09 09:26:08;;;;;;;15.30;7.08;;;;;;;25.00;49.40;100698.02;1759923;79;21649;-78
2022/09/09 09:28:37;;;;;;;19.67;5.33;;;;;;;25.00;49.19;100691.06;1740810;81;21119;-78
2022/09/09 09:31:10;;;;;;;11.53;5.15;;;;;;;25.01;49.29;100694.09;1747133;80;21088;-77
2022/09/09 09:33:52;;;;;;;13.28;5.85;;;;;;;25.01;49.42;100698.27;1765634;80;21007;-77
2022/09/09 09:36:20;;;;;;;13.18;4.90;;;;;;;25.01;49.50;100696.88;1758472;80;21457;-78
2022/09/09 09:38:59;;;;;;;15.80;6.08;;;;;;;25.01;49.55;100700.47;1736546;81;21090;-78
2022/09/09 09:41:38;;;;;;;15.10;5.42;;;;;;;25.02;49.64;100704.06;1762852;80;21395;-75
2022/09/09 09:44:07;;;;;;;18.05;6.37;;;;;;;25.02;49.64;100701.28;1754835;79;21668;-76
2022/09/09 09:46:33;;;;;;;18.30;5.45;;;;;;;25.02;49.58;100698.50;1758736;80;21035;-78
2022/09/09 09:49:05;;;;;;;9.03;4.83;;;;;;;25.02;49.50;100702.67;1748153;80;21134;-78
2022/09/09 09:51:32;;;;;;;8.90;4.55;;;;;;;25.01;49.28;100696.88;1771366;79;21070;-78
2022/09/09 09:54:22;;;;;;;13.08;4.95;;;;;;;25.01;49.25;100684.34;1734515;80;21654;-73
2022/09/09 09:56:49;;;;;;;19.23;4.70;;;;;;;25.04;49.79;100691.20;1699159;81;21036;-77
2022/09/09 09:59:29;;;;;;;14.75;5.05;;;;;;;25.06;49.72;100684.11;1770269;79;21587;-77
2022/09/09 10:02:19;;;;;;;19.75;4.60;;;;;;;25.09;49.74;100683.98;1730694;81;22061;-76
2022/09/09 10:04:46;;;;;;;9.93;3.90;;;;;;;25.11;49.68;100674.13;1770198;79;21058;-77
2022/09/09 10:07:19;;;;;;;12.23;4.12;;;;;;;25.13;49.37;100681.53;1753970;80;21066;-77
2022/09/09 10:09:45;;;;;;;15.40;4.40;;;;;;;25.18;49.09;100686.05;1767488;80;21111;-78
2022/09/09 10:12:44;;;;;;;10.93;4.42;;;;;;;25.21;49.30;100687.55;1750045;81;21132;-77
2022/09/09 10:15:43;;;;;;;13.60;5.00;;;;;;;25.22;49.37;100673.05;1754799;81;22097;-76
2022/09/09 10:18:49;;;;;;;10.10;4.40;;;;;;;25.24;49.48;100669.34;1754819;80;21708;-77
2022/09/09 10:21:39;;;;;;;19.50;6.37;;;;;;;25.23;49.45;100664.35;1729344;80;21140;-79
2022/09/09 10:24:35;;;;;;;13.68;4.95;;;;;;;25.24;49.36;100676.30;1757318;80;21127;-79
2022/09/09 10:27:34;;;;;;;18.48;8.20;;;;;;;25.22;49.21;100678.03;1755106;80;21066;-76
2022/09/09 10:30:19;;;;;;;16.00;7.35;;;;;;;25.23;48.96;100681.64;1761075;80;21081;-79
2022/09/09 10:32:55;;;;;;;8.20;4.28;;;;;;;25.23;48.69;100685.23;1762601;80;21582;-77
2022/09/09 10:35:32;;;;;;;8.95;4.33;;;;;;;25.26;48.25;100684.52;1755277;80;22241;-78
2022/09/09 10:38:30;;;;;;;8.25;4.50;;;;;;;25.31;47.85;100684.28;1752144;80;21657;-76
2022/09/09 10:41:20;;;;;;;12.18;5.25;;;;;;;25.31;47.79;100679.29;1760998;80;21019;-74
2022/09/09 10:44:09;;;;;;;9.80;5.63;;;;;;;25.30;47.90;100680.45;1727553;80;21279;-75
2022/09/09 10:47:02;;;;;;;11.33;5.60;;;;;;;25.28;47.96;100668.86;1757430;79;21066;-78
2022/09/09 10:50:06;;;;;;;12.88;6.17;;;;;;;25.28;48.07;100671.65;1771674;79;21704;-77
2022/09/09 10:53:16;;;;;;;11.57;5.75;;;;;;;25.25;47.93;100664.02;1767912;79;20968;-75
2022/09/09 10:55:53;;;;;;;11.33;4.87;;;;;;;25.23;47.87;100669.92;1775183;79;22083;-74
2022/09/09 10:58:27;;;;;;;12.13;4.17;;;;;;;25.23;48.00;100663.53;1752442;79;21278;-74
2022/09/09 11:00:57;;;;;;;16.32;3.90;;;;;;;25.24;48.35;100660.98;1730558;80;21089;-75
2022/09/09 11:03:33;;;;;;;16.05;3.95;;;;;;;25.25;48.61;100655.66;1743465;81;21698;-75
2022/09/09 11:06:13;;;;;;;14.85;3.92;;;;;;;25.23;48.78;100656.00;1755914;80;21072;-75
2022/09/09 11:08:40;;;;;;;15.88;3.45;;;;;;;25.26;48.78;100654.47;1769053;80;21054;-73
2022/09/09 11:11:20;;;;;;;16.82;3.87;;;;;;;25.32;48.38;100653.07;1750572;80;21154;-75
2022/09/09 11:13:58;;;;;;;8.73;3.50;;;;;;;25.37;48.08;100639.72;1756635;81;21146;-75
2022/09/09 11:16:45;;;;;;;9.33;3.60;;;;;;;25.42;47.75;100638.05;1759413;80;21090;-74
2022/09/09 11:19:39;;;;;;;15.40;4.42;;;;;;;25.43;47.86;100641.64;1758713;80;21036;-74
2022/09/09 11:22:34;;;;;;;11.85;3.70;;;;;;;25.43;47.98;100640.25;1761643;80;21063;-74
2022/09/09 11:25:15;;;;;;;10.43;4.00;;;;;;;25.40;48.17;100641.78;1747981;81;21094;-75
2022/09/09 11:28:22;;;;;;;8.15;3.87;;;;;;;25.39;48.34;100651.88;1751031;80;21133;-76
2022/09/09 11:31:15;;;;;;;13.62;3.45;;;;;;;25.39;48.39;100651.30;1743105;79;21106;-80
2022/09/09 11:33:49;;;;;;;8.38;3.15;;;;;;;25.37;48.15;100641.11;1707115;82;21151;-77
2022/09/09 11:36:55;;;;;;;9.20;3.67;;;;;;;25.39;47.97;100640.16;1762746;80;21561;-75
2022/09/09 11:39:52;;;;;;;10.70;3.00;;;;;;;25.40;47.76;100636.80;1752621;80;21079;-78
2022/09/09 11:42:22;;;;;;;6.90;2.75;;;;;;;25.45;47.26;100630.39;1738774;81;21036;-77
2022/09/09 11:44:48;;;;;;;5.10;3.22;;;;;;;25.49;47.06;100630.49;1761825;80;21405;-75
2022/09/09 11:47:30;;;;;;;6.10;3.00;;;;;;;25.48;46.96;100628.28;1715878;81;21041;-78
2022/09/09 11:50:18;;;;;;;7.92;3.65;;;;;;;25.52;46.76;100627.56;1767172;79;21618;-76
2022/09/09 11:52:46;;;;;;;14.35;3.58;;;;;;;25.54;46.99;100633.64;1758941;79;21072;-76
2022/09/09 11:55:32;;;;;;;12.60;3.58;;;;;;;25.50;47.35;100630.73;1762503;79;21016;-76